Time;durP1;ratioP1;P1;durP2;ratioP2;P2;SDS_P1;SDS_P2;PMS_P1;PMS_P2;Temp;Humidity;BMP_temperature;BMP_pressure;BME280_temperature;BME280_humidity;BME280_pressure;Samples;Min_cycle;Max_cycle;Signal;HPM_P1;HPM_P2
2020/12/12 00:01:04;;;;;;;6.38;5.32;;;6.70;99.90;;;;;;5121258;27;20205;-72
2020/12/12 00:03:31;;;;;;;8.05;5.50;;;6.70;99.90;;;;;;5113747;27;20219;-72
2020/12/12 00:05:57;;;;;;;5.90;5.10;;;6.70;99.90;;;;;;5123995;27;20191;-72
2020/12/12 00:08:23;;;;;;;7.90;7.00;;;6.70;99.90;;;;;;5124573;27;20199;-72
2020/12/12 00:10:50;;;;;;;5.43;4.90;;;6.70;99.90;;;;;;5129865;27;20196;-72
2020/12/12 00:13:17;;;;;;;5.85;4.75;;;6.60;99.90;;;;;;5113392;27;20200;-72
2020/12/12 00:15:44;;;;;;;6.38;5.45;;;6.60;99.90;;;;;;5120751;27;20535;-72
2020/12/12 00:18:10;;;;;;;6.20;5.60;;;6.60;99.90;;;;;;5112769;28;20208;-72
2020/12/12 00:20:36;;;;;;;6.65;5.45;;;6.70;99.90;;;;;;5113460;28;20204;-72
2020/12/12 00:23:02;;;;;;;6.82;5.65;;;6.70;99.90;;;;;;5112748;28;20193;-72
2020/12/12 00:25:29;;;;;;;6.63;4.30;;;6.60;99.90;;;;;;5112530;27;20219;-72
2020/12/12 00:27:55;;;;;;;4.90;4.40;;;6.70;99.90;;;;;;5118650;27;20199;-72
2020/12/12 00:30:23;;;;;;;7.82;5.50;;;6.70;99.90;;;;;;5112899;28;20201;-72
2020/12/12 00:32:49;;;;;;;5.63;5.00;;;6.70;99.90;;;;;;5112028;27;20647;-72
2020/12/12 00:35:16;;;;;;;5.07;4.63;;;6.80;99.90;;;;;;5112388;28;20383;-72
2020/12/12 00:37:42;;;;;;;6.25;4.95;;;6.70;99.90;;;;;;5121357;27;20206;-71
2020/12/12 00:40:08;;;;;;;8.52;5.63;;;6.70;99.90;;;;;;5132738;27;20231;-71
2020/12/12 00:42:34;;;;;;;5.47;4.30;;;6.70;99.90;;;;;;5132003;27;20202;-72
2020/12/12 00:45:00;;;;;;;4.93;4.53;;;6.70;99.90;;;;;;5126952;27;20274;-71
2020/12/12 00:47:28;;;;;;;4.35;3.95;;;6.70;99.90;;;;;;5118574;28;20212;-71
2020/12/12 00:49:54;;;;;;;6.15;5.32;;;6.70;99.90;;;;;;5122467;28;20200;-71
2020/12/12 00:52:20;;;;;;;8.18;5.60;;;6.70;99.90;;;;;;5130470;27;20200;-71
2020/12/12 00:54:46;;;;;;;5.00;4.28;;;6.70;99.90;;;;;;5130496;27;20203;-71
2020/12/12 00:57:13;;;;;;;5.57;4.00;;;6.70;99.90;;;;;;5126304;28;20188;-71
2020/12/12 00:59:39;;;;;;;4.90;4.45;;;6.70;99.90;;;;;;5131723;27;20206;-71
2020/12/12 01:02:05;;;;;;;6.70;3.70;;;6.70;99.90;;;;;;5117881;27;20200;-71
2020/12/12 01:04:32;;;;;;;4.72;4.20;;;6.70;99.90;;;;;;5132701;27;20196;-72
2020/12/12 01:06:58;;;;;;;4.60;4.20;;;6.70;99.90;;;;;;5117203;27;20675;-71
2020/12/12 01:09:25;;;;;;;4.32;3.75;;;6.70;99.90;;;;;;5132815;27;20540;-72
2020/12/12 01:11:51;;;;;;;5.35;4.38;;;6.80;99.90;;;;;;5114608;27;20645;-72
2020/12/12 01:14:18;;;;;;;4.30;3.90;;;6.80;99.90;;;;;;5125932;28;20578;-71
2020/12/12 01:16:44;;;;;;;4.57;3.97;;;6.80;99.90;;;;;;5111733;28;20239;-72
2020/12/12 01:19:10;;;;;;;4.88;4.38;;;6.80;99.90;;;;;;5113175;28;20656;-72
2020/12/12 01:21:37;;;;;;;5.03;4.28;;;6.70;99.90;;;;;;5112826;27;20197;-72
2020/12/12 01:24:04;;;;;;;4.65;4.25;;;6.70;99.90;;;;;;5125219;27;20197;-72
2020/12/12 01:26:31;;;;;;;5.78;4.35;;;6.70;99.90;;;;;;5122958;27;20181;-71
2020/12/12 01:28:59;;;;;;;5.55;4.43;;;6.70;99.90;;;;;;5136482;27;20214;-72
2020/12/12 01:31:25;;;;;;;4.93;4.40;;;6.70;99.90;;;;;;5135883;27;20184;-71
2020/12/12 01:33:51;;;;;;;4.30;3.90;;;6.80;99.90;;;;;;5131018;27;20207;-72
2020/12/12 01:36:18;;;;;;;5.10;4.60;;;6.80;99.90;;;;;;5124052;27;20682;-72
2020/12/12 01:38:45;;;;;;;4.40;3.83;;;6.80;99.90;;;;;;5127469;27;20228;-72
2020/12/12 01:41:11;;;;;;;5.22;4.72;;;6.70;99.90;;;;;;5118736;27;20215;-73
2020/12/12 01:43:37;;;;;;;4.32;3.92;;;6.80;99.90;;;;;;5115489;28;20287;-73
2020/12/12 01:46:04;;;;;;;5.10;4.00;;;6.70;99.90;;;;;;5120849;27;20192;-73
2020/12/12 01:48:30;;;;;;;4.50;4.00;;;6.70;99.90;;;;;;5136067;27;20695;-72
2020/12/12 01:50:57;;;;;;;4.63;4.00;;;6.80;99.90;;;;;;5135968;27;20188;-72
2020/12/12 01:53:26;;;;;;;4.32;3.92;;;6.70;99.90;;;;;;5131490;27;20204;-73
2020/12/12 01:55:54;;;;;;;4.80;4.32;;;6.80;99.90;;;;;;5127646;27;20218;-72
2020/12/12 01:58:20;;;;;;;7.03;4.55;;;6.80;99.90;;;;;;5116235;27;20197;-73
2020/12/12 02:00:46;;;;;;;5.13;3.95;;;6.70;99.90;;;;;;5115495;28;20196;-73
2020/12/12 02:03:13;;;;;;;4.65;4.25;;;6.70;99.90;;;;;;5115406;27;20197;-72
2020/12/12 02:05:39;;;;;;;6.82;4.28;;;6.80;99.90;;;;;;5125939;27;20215;-73
2020/12/12 02:08:08;;;;;;;5.07;4.35;;;6.80;99.90;;;;;;5135936;27;20203;-73
2020/12/12 02:10:36;;;;;;;5.70;4.38;;;6.80;99.90;;;;;;5127577;27;20595;-72
2020/12/12 02:13:04;;;;;;;5.43;4.60;;;6.80;99.90;;;;;;5115339;27;20201;-72
2020/12/12 02:15:30;;;;;;;3.97;3.65;;;6.80;99.90;;;;;;5127603;27;20302;-72
2020/12/12 02:17:57;;;;;;;5.50;4.30;;;6.80;99.90;;;;;;5134105;27;20206;-72
2020/12/12 02:20:24;;;;;;;5.45;4.57;;;6.80;99.90;;;;;;5135373;27;20196;-72
2020/12/12 02:22:51;;;;;;;4.40;4.00;;;6.80;99.90;;;;;;5134752;27;20204;-72
2020/12/12 02:25:17;;;;;;;4.35;3.95;;;6.70;99.90;;;;;;5118902;27;20687;-73
2020/12/12 02:27:44;;;;;;;4.85;4.35;;;6.80;99.90;;;;;;5122144;27;20189;-73
2020/12/12 02:30:10;;;;;;;5.80;5.30;;;6.80;99.90;;;;;;5117567;27;20560;-73
2020/12/12 02:32:36;;;;;;;5.07;4.15;;;6.80;99.90;;;;;;5114686;27;20197;-73
2020/12/12 02:35:05;;;;;;;6.03;5.45;;;6.80;99.90;;;;;;5114081;28;20197;-73
2020/12/12 02:37:32;;;;;;;5.63;4.65;;;6.80;99.90;;;;;;5114641;28;20208;-73
2020/12/12 02:39:59;;;;;;;4.70;3.88;;;6.80;99.90;;;;;;5115230;27;20239;-73
2020/12/12 02:42:26;;;;;;;4.88;4.22;;;6.80;99.90;;;;;;5132568;27;20192;-73
2020/12/12 02:44:53;;;;;;;4.15;3.75;;;6.80;99.90;;;;;;5126086;27;20220;-73
2020/12/12 02:47:19;;;;;;;4.30;3.90;;;6.80;99.90;;;;;;5123369;27;20189;-72
2020/12/12 02:50:00;;;;;;;4.22;3.60;;;6.80;99.90;;;;;;5114955;27;20196;-72
2020/12/12 02:52:26;;;;;;;4.20;3.10;;;6.90;99.90;;;;;;5117478;27;20279;-72
2020/12/12 02:54:52;;;;;;;5.45;3.90;;;6.80;99.90;;;;;;5128632;27;20192;-72
2020/12/12 02:57:19;;;;;;;5.40;3.95;;;6.80;99.90;;;;;;5121126;27;20231;-72
2020/12/12 02:59:46;;;;;;;4.50;3.88;;;6.80;99.90;;;;;;5119551;27;20234;-72
2020/12/12 03:02:12;;;;;;;5.38;4.55;;;6.80;99.90;;;;;;5133256;27;20196;-72
2020/12/12 03:04:38;;;;;;;3.25;2.97;;;6.90;99.90;;;;;;5129777;27;20215;-72
2020/12/12 03:07:04;;;;;;;4.15;3.53;;;6.80;99.90;;;;;;5131579;27;20215;-73
2020/12/12 03:09:31;;;;;;;3.97;3.63;;;6.80;99.90;;;;;;5113816;28;20193;-73
2020/12/12 03:11:57;;;;;;;5.10;4.28;;;6.80;99.90;;;;;;5114162;28;20200;-73
2020/12/12 03:14:24;;;;;;;4.38;3.65;;;6.90;99.90;;;;;;5113571;27;20201;-72
2020/12/12 03:16:50;;;;;;;3.63;2.92;;;6.90;99.90;;;;;;5113898;28;20208;-73
2020/12/12 03:19:16;;;;;;;4.40;4.05;;;6.90;99.90;;;;;;5114524;27;20203;-73
2020/12/12 03:21:43;;;;;;;5.07;3.22;;;6.90;99.90;;;;;;5131580;27;20207;-73
2020/12/12 03:24:09;;;;;;;4.30;3.85;;;6.90;99.90;;;;;;5133571;27;20200;-73
2020/12/12 03:26:35;;;;;;;4.45;3.70;;;6.90;99.90;;;;;;5133903;27;20189;-73
2020/12/12 03:29:01;;;;;;;3.97;3.67;;;6.80;99.90;;;;;;5125135;27;20189;-73
2020/12/12 03:31:28;;;;;;;4.18;3.70;;;6.80;99.90;;;;;;5126181;27;20624;-73
2020/12/12 03:33:55;;;;;;;3.55;3.25;;;6.90;99.90;;;;;;5121073;27;20188;-73
2020/12/12 03:36:21;;;;;;;4.32;3.55;;;6.80;99.90;;;;;;5119722;27;20227;-73
2020/12/12 03:38:47;;;;;;;3.95;3.55;;;6.80;99.90;;;;;;5113125;28;20225;-73
2020/12/12 03:41:13;;;;;;;4.47;4.03;;;6.80;99.90;;;;;;5115336;27;20193;-73
2020/12/12 03:43:40;;;;;;;4.15;3.65;;;6.80;99.90;;;;;;5121507;27;20207;-73
2020/12/12 03:46:06;;;;;;;4.13;3.63;;;6.90;99.90;;;;;;5132576;27;20192;-73
2020/12/12 03:48:33;;;;;;;4.00;3.63;;;6.90;99.90;;;;;;5124025;27;20200;-73
2020/12/12 03:50:59;;;;;;;5.32;4.25;;;6.90;99.90;;;;;;5113165;28;20200;-73
2020/12/12 03:53:25;;;;;;;3.67;3.30;;;6.90;99.90;;;;;;5114852;27;20192;-73
2020/12/12 03:55:52;;;;;;;5.15;3.28;;;6.90;99.90;;;;;;5132356;27;20208;-73
2020/12/12 03:58:18;;;;;;;3.67;3.10;;;6.90;99.90;;;;;;5133273;27;20200;-73
2020/12/12 04:00:44;;;;;;;3.67;3.28;;;6.90;99.90;;;;;;5128489;27;20188;-73
2020/12/12 04:03:10;;;;;;;4.15;3.70;;;6.90;99.90;;;;;;5127341;27;20196;-73
2020/12/12 04:05:37;;;;;;;3.35;3.05;;;6.90;99.90;;;;;;5113379;27;20193;-73
2020/12/12 04:08:04;;;;;;;4.75;3.78;;;6.90;99.90;;;;;;5112941;28;20188;-73
2020/12/12 04:10:30;;;;;;;4.60;3.25;;;6.90;99.90;;;;;;5112809;27;20196;-73
2020/12/12 04:12:56;;;;;;;4.07;3.67;;;6.90;99.90;;;;;;5112867;28;20204;-73
2020/12/12 04:15:22;;;;;;;3.60;2.95;;;6.90;99.90;;;;;;5112763;28;20189;-73
2020/12/12 04:17:49;;;;;;;4.63;3.88;;;6.90;99.90;;;;;;5129160;27;20199;-72
2020/12/12 04:20:15;;;;;;;3.58;3.10;;;6.90;99.90;;;;;;5133326;27;20189;-72
2020/12/12 04:22:42;;;;;;;4.75;3.35;;;6.90;99.90;;;;;;5130998;27;20192;-73
2020/12/12 04:25:08;;;;;;;3.13;2.70;;;6.90;99.90;;;;;;5112531;28;20544;-72
2020/12/12 04:27:35;;;;;;;3.40;3.10;;;6.90;99.90;;;;;;5119292;27;20195;-72
2020/12/12 04:30:01;;;;;;;3.47;3.00;;;6.90;99.90;;;;;;5132677;27;20199;-73
2020/12/12 04:32:27;;;;;;;4.20;3.80;;;6.90;99.90;;;;;;5124308;27;20200;-72
2020/12/12 04:34:53;;;;;;;3.58;3.17;;;6.90;99.90;;;;;;5125115;27;20197;-72
2020/12/12 04:37:20;;;;;;;3.30;2.58;;;6.90;99.90;;;;;;5129127;27;20212;-73
2020/12/12 04:39:47;;;;;;;3.25;2.92;;;6.90;99.90;;;;;;5130601;27;20335;-73
2020/12/12 04:42:15;;;;;;;3.05;2.75;;;6.90;99.90;;;;;;5112209;28;20228;-73
2020/12/12 04:44:43;;;;;;;2.70;2.50;;;6.90;99.90;;;;;;5128777;28;20191;-73
2020/12/12 04:47:10;;;;;;;3.38;3.08;;;6.90;99.90;;;;;;5131608;27;20225;-73
2020/12/12 04:49:36;;;;;;;4.30;3.58;;;6.90;99.90;;;;;;5124463;27;20199;-73
2020/12/12 04:52:04;;;;;;;4.05;3.58;;;6.90;99.90;;;;;;5124700;27;20193;-72
2020/12/12 04:54:32;;;;;;;3.95;3.55;;;6.90;99.90;;;;;;5117711;27;20213;-73
2020/12/12 04:57:03;;;;;;;4.95;3.60;;;6.90;99.90;;;;;;5112039;28;20224;-72
2020/12/12 04:59:32;;;;;;;3.38;2.92;;;6.90;99.90;;;;;;5128350;27;20192;-73
2020/12/12 05:01:59;;;;;;;4.13;3.70;;;6.90;99.90;;;;;;5126522;27;20195;-72
2020/12/12 05:04:25;;;;;;;3.22;2.75;;;7.00;99.90;;;;;;5117648;27;20204;-73
2020/12/12 05:06:52;;;;;;;4.45;3.92;;;7.00;99.90;;;;;;5116136;28;20193;-73
2020/12/12 05:09:18;;;;;;;4.85;2.75;;;7.00;99.90;;;;;;5116910;27;20205;-73
2020/12/12 05:11:45;;;;;;;3.92;3.17;;;7.00;99.90;;;;;;5127294;27;20200;-72
2020/12/12 05:14:15;;;;;;;3.70;3.40;;;7.00;99.90;;;;;;5125793;27;20188;-72
2020/12/12 05:16:41;;;;;;;3.75;3.17;;;7.00;99.90;;;;;;5132175;27;20712;-72
2020/12/12 05:19:08;;;;;;;3.03;2.72;;;7.00;99.90;;;;;;5123308;27;20207;-72
2020/12/12 05:21:34;;;;;;;2.88;2.58;;;7.00;99.90;;;;;;5116105;28;20197;-72
2020/12/12 05:24:01;;;;;;;3.88;3.45;;;7.00;99.90;;;;;;5132476;27;20509;-72
2020/12/12 05:26:29;;;;;;;3.20;2.90;;;7.00;99.90;;;;;;5129675;27;20189;-72
2020/12/12 05:28:59;;;;;;;4.38;3.70;;;7.00;99.90;;;;;;5116089;27;20232;-72
2020/12/12 05:31:27;;;;;;;5.40;3.28;;;7.00;99.90;;;;;;5123387;27;20269;-72
2020/12/12 05:33:54;;;;;;;3.92;3.10;;;7.00;99.90;;;;;;5121953;27;20257;-72
2020/12/12 05:36:26;;;;;;;3.60;3.22;;;7.00;99.90;;;;;;5134912;27;20216;-72
2020/12/12 05:38:57;;;;;;;5.55;3.75;;;7.00;99.90;;;;;;5136383;27;20687;-72
2020/12/12 05:41:26;;;;;;;4.22;3.83;;;7.10;99.90;;;;;;5135827;27;20252;-72
2020/12/12 05:43:52;;;;;;;4.97;3.63;;;7.10;99.90;;;;;;5131478;27;20197;-73
2020/12/12 05:46:22;;;;;;;4.05;3.65;;;7.10;99.90;;;;;;5134654;27;20192;-73
2020/12/12 05:48:50;;;;;;;3.58;3.20;;;7.10;99.90;;;;;;5121246;27;20417;-73
2020/12/12 05:51:17;;;;;;;4.13;3.60;;;7.10;99.90;;;;;;5128372;27;20196;-72
2020/12/12 05:53:45;;;;;;;3.25;2.72;;;7.10;99.90;;;;;;5132342;27;20716;-72
2020/12/12 05:56:11;;;;;;;3.10;2.70;;;7.10;99.90;;;;;;5115361;27;20213;-72
2020/12/12 05:58:39;;;;;;;3.90;3.47;;;7.10;99.90;;;;;;5115414;28;20298;-72
2020/12/12 06:01:11;;;;;;;2.60;2.40;;;7.00;99.90;;;;;;5127749;27;20272;-72
2020/12/12 06:03:49;;;;;;;4.03;3.58;;;7.00;99.90;;;;;;5135073;27;20192;-72
2020/12/12 06:06:21;;;;;;;3.40;3.10;;;7.10;99.90;;;;;;5128614;27;20639;-73
2020/12/12 06:08:59;;;;;;;4.50;3.42;;;7.10;99.90;;;;;;5115270;27;20205;-72
2020/12/12 06:11:28;;;;;;;3.83;3.40;;;7.10;99.90;;;;;;5114743;28;20219;-72
2020/12/12 06:13:58;;;;;;;3.63;3.33;;;7.10;99.90;;;;;;5117251;27;20208;-73
2020/12/12 06:16:27;;;;;;;3.47;3.17;;;7.10;99.90;;;;;;5135660;27;20216;-72
2020/12/12 06:19:18;;;;;;;3.30;2.30;;;7.10;99.90;;;;;;5133679;27;20196;-72
2020/12/12 06:21:47;;;;;;;3.15;2.85;;;7.10;99.90;;;;;;5115402;27;20193;-72
2020/12/12 06:24:16;;;;;;;3.15;2.67;;;7.10;99.90;;;;;;5134148;27;20192;-73
2020/12/12 06:26:51;;;;;;;2.90;2.25;;;7.20;99.90;;;;;;5126899;27;20195;-72
2020/12/12 06:29:18;;;;;;;5.80;3.53;;;7.10;99.90;;;;;;5114174;27;20601;-73
2020/12/12 06:31:45;;;;;;;4.32;3.58;;;7.10;99.90;;;;;;5114466;28;20203;-73
2020/12/12 06:34:11;;;;;;;4.13;3.60;;;7.10;99.90;;;;;;5113375;28;20197;-73
2020/12/12 06:36:45;;;;;;;3.22;2.80;;;7.10;99.90;;;;;;5114424;28;20220;-73
2020/12/12 06:39:20;;;;;;;3.72;3.35;;;7.10;99.90;;;;;;5113884;28;20234;-73
2020/12/12 06:41:49;;;;;;;4.15;3.10;;;7.20;99.90;;;;;;5114471;28;20193;-73
2020/12/12 06:44:31;;;;;;;3.47;2.92;;;7.20;99.90;;;;;;5114567;28;20196;-73
2020/12/12 06:46:58;;;;;;;3.45;2.90;;;7.20;99.90;;;;;;5126584;27;20192;-73
2020/12/12 06:49:24;;;;;;;3.67;3.13;;;7.20;99.90;;;;;;5123671;27;20200;-73
2020/12/12 06:51:52;;;;;;;2.78;2.58;;;7.20;99.90;;;;;;5132819;27;20215;-72
2020/12/12 06:54:19;;;;;;;3.72;3.22;;;7.20;99.90;;;;;;5134684;27;20202;-72
2020/12/12 06:56:45;;;;;;;4.03;3.38;;;7.20;99.90;;;;;;5117333;27;20219;-72
2020/12/12 06:59:30;;;;;;;3.50;3.20;;;7.20;99.90;;;;;;5114419;27;20203;-72
2020/12/12 07:01:57;;;;;;;3.45;2.70;;;7.20;99.90;;;;;;5114015;28;20576;-72
2020/12/12 07:04:28;;;;;;;4.05;2.78;;;7.20;99.90;;;;;;5115028;27;20193;-72
2020/12/12 07:07:07;;;;;;;4.45;4.05;;;7.20;99.90;;;;;;5116926;27;20189;-72
2020/12/12 07:09:35;;;;;;;3.20;2.65;;;7.20;99.90;;;;;;5114051;27;20636;-71
2020/12/12 07:12:01;;;;;;;2.80;2.58;;;7.20;99.90;;;;;;5114091;28;20193;-72
2020/12/12 07:14:28;;;;;;;4.15;2.90;;;7.20;99.90;;;;;;5123394;27;20638;-72
2020/12/12 07:16:57;;;;;;;3.05;2.63;;;7.20;99.90;;;;;;5119517;27;20671;-71
2020/12/12 07:19:34;;;;;;;3.10;2.80;;;7.20;99.90;;;;;;5134152;27;20196;-71
2020/12/12 07:22:02;;;;;;;3.83;3.25;;;7.20;99.90;;;;;;5119943;27;20200;-71
2020/12/12 07:24:29;;;;;;;2.90;2.60;;;7.20;99.90;;;;;;5125179;27;20192;-72
2020/12/12 07:26:56;;;;;;;2.65;2.45;;;7.20;99.90;;;;;;5114584;27;20636;-71
2020/12/12 07:29:22;;;;;;;3.30;2.72;;;7.20;99.90;;;;;;5113522;28;20216;-71
2020/12/12 07:31:51;;;;;;;2.97;2.78;;;7.20;99.90;;;;;;5114511;27;20201;-71
2020/12/12 07:34:18;;;;;;;2.67;2.47;;;7.20;99.90;;;;;;5114970;27;20197;-72
2020/12/12 07:36:45;;;;;;;2.97;2.70;;;7.20;99.90;;;;;;5121815;27;20220;-71
2020/12/12 07:39:12;;;;;;;4.35;3.70;;;7.30;99.90;;;;;;5113408;27;20568;-72
2020/12/12 07:41:45;;;;;;;3.20;2.90;;;7.30;99.90;;;;;;5114441;27;20189;-72
2020/12/12 07:44:12;;;;;;;3.75;3.35;;;7.30;99.90;;;;;;5113262;27;20200;-71
2020/12/12 07:46:40;;;;;;;4.05;3.15;;;7.30;99.90;;;;;;5132023;27;20230;-71
2020/12/12 07:49:07;;;;;;;4.85;3.17;;;7.30;99.90;;;;;;5131931;27;20192;-71
2020/12/12 07:51:34;;;;;;;3.88;2.13;;;7.30;99.90;;;;;;5118851;27;20193;-72
2020/12/12 07:54:00;;;;;;;2.72;2.53;;;7.30;99.90;;;;;;5112496;27;20207;-72
2020/12/12 07:56:29;;;;;;;3.60;3.30;;;7.30;99.90;;;;;;5113543;27;20212;-72
2020/12/12 07:59:03;;;;;;;3.08;2.33;;;7.30;99.90;;;;;;5113023;28;20201;-73
2020/12/12 08:01:29;;;;;;;2.17;1.98;;;7.30;99.90;;;;;;5126169;27;20490;-72
2020/12/12 08:03:55;;;;;;;2.30;2.10;;;7.30;99.90;;;;;;5117880;27;20200;-72
2020/12/12 08:06:26;;;;;;;2.00;1.80;;;7.40;99.90;;;;;;5119555;27;20193;-72
2020/12/12 08:08:55;;;;;;;2.50;2.08;;;7.40;99.90;;;;;;5113206;28;20185;-72
2020/12/12 08:11:22;;;;;;;2.50;2.30;;;7.40;99.90;;;;;;5113066;28;20204;-73
2020/12/12 08:13:48;;;;;;;2.38;2.15;;;7.40;99.90;;;;;;5116958;27;20188;-73
2020/12/12 08:16:21;;;;;;;3.08;2.22;;;7.40;99.90;;;;;;5133086;27;20221;-73
2020/12/12 08:18:47;;;;;;;3.10;2.28;;;7.40;99.90;;;;;;5122230;27;20663;-72
2020/12/12 08:21:15;;;;;;;3.53;2.20;;;7.40;99.90;;;;;;5112579;27;20192;-72
2020/12/12 08:23:42;;;;;;;1.90;1.73;;;7.40;99.90;;;;;;5114046;27;20197;-72
2020/12/12 08:26:12;;;;;;;2.58;2.35;;;7.40;99.90;;;;;;5112398;28;20200;-72
2020/12/12 08:28:39;;;;;;;3.25;2.40;;;7.40;99.90;;;;;;5120040;27;20192;-72
2020/12/12 08:31:13;;;;;;;3.22;2.65;;;7.40;99.90;;;;;;5121259;27;20192;-72
2020/12/12 08:33:40;;;;;;;2.20;2.00;;;7.40;99.90;;;;;;5115467;27;20193;-72
2020/12/12 08:36:11;;;;;;;2.13;1.83;;;7.50;99.90;;;;;;5114518;27;20205;-72
2020/12/12 08:38:38;;;;;;;2.50;2.30;;;7.40;99.90;;;;;;5133035;27;20224;-72
2020/12/12 08:41:11;;;;;;;2.42;2.20;;;7.40;99.90;;;;;;5123214;27;20196;-72
2020/12/12 08:43:37;;;;;;;2.50;2.30;;;7.40;99.90;;;;;;5119146;27;20195;-72
2020/12/12 08:46:04;;;;;;;2.20;2.00;;;7.50;99.90;;;;;;5119128;27;20180;-73
2020/12/12 08:48:32;;;;;;;3.25;2.10;;;7.50;99.90;;;;;;5132563;27;20192;-73
2020/12/12 08:51:01;;;;;;;2.30;2.10;;;7.50;99.90;;;;;;5125104;27;20199;-73
2020/12/12 08:53:33;;;;;;;2.10;1.80;;;7.50;99.90;;;;;;5112485;28;20214;-72
2020/12/12 08:56:03;;;;;;;2.55;2.35;;;7.40;99.90;;;;;;5123229;28;20214;-73
2020/12/12 08:58:37;;;;;;;3.92;3.53;;;7.50;99.90;;;;;;5121682;27;20301;-73
2020/12/12 09:01:21;;;;;;;5.15;3.10;;;7.50;99.90;;;;;;5112074;28;20209;-73
2020/12/12 09:03:55;;;;;;;3.17;2.88;;;7.40;99.90;;;;;;5144190;27;20630;-73
2020/12/12 09:06:23;;;;;;;2.53;2.30;;;7.40;99.90;;;;;;5133152;27;20202;-73
2020/12/12 09:09:09;;;;;;;4.47;2.85;;;7.50;99.90;;;;;;5112710;27;20193;-74
2020/12/12 09:11:36;;;;;;;4.00;3.60;;;7.50;99.90;;;;;;5129234;28;20275;-73
2020/12/12 09:14:03;;;;;;;2.97;2.60;;;7.50;99.90;;;;;;5131191;27;20297;-73
2020/12/12 09:16:30;;;;;;;2.70;2.50;;;7.50;99.90;;;;;;5132324;27;20226;-73
2020/12/12 09:18:57;;;;;;;3.00;2.55;;;7.50;99.90;;;;;;5132556;27;20192;-73
2020/12/12 09:21:24;;;;;;;3.53;2.97;;;7.50;99.90;;;;;;5123727;27;20212;-73
2020/12/12 09:23:51;;;;;;;4.32;2.90;;;7.50;99.90;;;;;;5123700;28;20188;-73
2020/12/12 09:26:19;;;;;;;4.07;3.55;;;7.50;99.90;;;;;;5132691;27;20524;-73
2020/12/12 09:28:46;;;;;;;3.53;2.88;;;7.50;99.90;;;;;;5129493;27;20258;-73
2020/12/12 09:31:14;;;;;;;3.70;2.90;;;7.60;99.90;;;;;;5114341;28;20280;-73
2020/12/12 09:33:41;;;;;;;3.22;2.90;;;7.50;99.90;;;;;;5126765;27;20693;-73
2020/12/12 09:36:07;;;;;;;3.30;2.58;;;7.50;99.90;;;;;;5110794;28;20219;-73
2020/12/12 09:38:34;;;;;;;3.38;2.85;;;7.50;99.90;;;;;;5113783;27;20229;-73
2020/12/12 09:41:01;;;;;;;3.00;2.63;;;7.50;99.90;;;;;;5153306;27;20206;-72
2020/12/12 09:43:27;;;;;;;5.57;3.20;;;7.50;99.90;;;;;;5132709;27;20283;-74
2020/12/12 09:45:53;;;;;;;2.92;2.50;;;7.40;99.90;;;;;;5124392;27;20193;-74
2020/12/12 09:48:20;;;;;;;4.13;3.65;;;7.40;99.90;;;;;;5115808;27;20677;-73
2020/12/12 09:50:46;;;;;;;4.88;3.80;;;7.40;99.90;;;;;;5115736;28;20658;-73
2020/12/12 09:53:13;;;;;;;2.95;2.65;;;7.40;99.90;;;;;;5122598;27;20189;-74
2020/12/12 09:55:41;;;;;;;3.90;3.58;;;7.40;99.90;;;;;;5120143;27;20777;-73
2020/12/12 09:58:08;;;;;;;3.03;2.50;;;7.40;99.90;;;;;;5115396;27;20213;-73
2020/12/12 10:00:36;;;;;;;3.30;3.00;;;7.40;99.90;;;;;;5132059;27;20206;-73
2020/12/12 10:03:03;;;;;;;3.95;2.78;;;7.40;99.90;;;;;;5116246;27;20189;-73
2020/12/12 10:05:29;;;;;;;4.82;3.17;;;7.40;99.90;;;;;;5123357;27;20545;-73
2020/12/12 10:07:56;;;;;;;3.30;3.00;;;7.40;99.90;;;;;;5114915;28;20200;-73
2020/12/12 10:10:23;;;;;;;3.40;3.00;;;7.40;99.90;;;;;;5114003;27;20601;-73
2020/12/12 10:12:51;;;;;;;2.55;2.35;;;7.40;99.90;;;;;;5132901;27;20191;-73
2020/12/12 10:15:18;;;;;;;2.85;2.60;;;7.40;99.90;;;;;;5134171;27;20203;-73
2020/12/12 10:17:45;;;;;;;3.55;2.95;;;7.40;99.90;;;;;;5124871;27;20213;-73
2020/12/12 10:20:11;;;;;;;3.42;2.85;;;7.40;99.90;;;;;;5118810;27;20185;-73
2020/12/12 10:22:39;;;;;;;4.32;3.58;;;7.40;99.90;;;;;;5126750;27;20635;-73
2020/12/12 10:25:06;;;;;;;3.35;2.53;;;7.50;99.90;;;;;;5125273;27;20288;-73
2020/12/12 10:27:32;;;;;;;4.75;3.38;;;7.50;99.90;;;;;;5123061;27;20531;-73
2020/12/12 10:29:59;;;;;;;3.90;2.90;;;7.50;99.90;;;;;;5126226;27;20195;-73
2020/12/12 10:32:26;;;;;;;4.07;3.67;;;7.50;99.90;;;;;;5127891;27;20195;-74
2020/12/12 10:34:52;;;;;;;4.57;3.30;;;7.50;99.90;;;;;;5119241;27;20208;-73
2020/12/12 10:37:18;;;;;;;2.97;2.10;;;7.50;99.90;;;;;;5114771;28;20220;-73
2020/12/12 10:39:51;;;;;;;4.55;2.58;;;7.60;99.90;;;;;;5120072;27;20228;-73
2020/12/12 10:42:17;;;;;;;3.13;2.40;;;7.60;99.90;;;;;;5114628;28;20235;-73
2020/12/12 10:44:43;;;;;;;3.40;3.10;;;7.60;99.90;;;;;;5114803;28;20201;-73
2020/12/12 10:47:10;;;;;;;3.30;2.60;;;7.70;99.90;;;;;;5115224;27;20185;-73
2020/12/12 10:49:37;;;;;;;3.17;2.85;;;7.70;99.90;;;;;;5115676;27;20228;-73
2020/12/12 10:52:05;;;;;;;2.42;2.22;;;7.70;99.90;;;;;;5114177;27;20203;-73
2020/12/12 10:54:31;;;;;;;4.78;4.25;;;7.70;99.90;;;;;;5114334;28;20521;-73
2020/12/12 10:56:58;;;;;;;2.80;2.60;;;7.80;99.90;;;;;;5122498;27;20212;-74
2020/12/12 10:59:25;;;;;;;3.15;2.83;;;7.80;99.90;;;;;;5117731;27;20196;-73
2020/12/12 11:01:54;;;;;;;3.10;2.80;;;7.80;99.90;;;;;;5114411;27;20201;-73
2020/12/12 11:04:22;;;;;;;4.63;3.47;;;7.80;99.90;;;;;;5117421;27;20635;-73
2020/12/12 11:06:48;;;;;;;3.60;2.95;;;7.80;99.90;;;;;;5134721;27;20192;-73
2020/12/12 11:09:15;;;;;;;3.65;2.10;;;7.80;99.90;;;;;;5134802;27;20196;-72
2020/12/12 11:11:41;;;;;;;3.90;3.00;;;7.90;99.90;;;;;;5116549;27;20207;-73
2020/12/12 11:14:08;;;;;;;3.88;3.17;;;7.90;99.90;;;;;;5114193;28;20203;-73
2020/12/12 11:16:35;;;;;;;2.70;2.10;;;7.90;99.90;;;;;;5113783;28;20702;-73
2020/12/12 11:19:01;;;;;;;3.30;3.00;;;7.90;99.90;;;;;;5113622;27;20288;-72
2020/12/12 11:21:28;;;;;;;2.60;2.40;;;7.90;99.90;;;;;;5117656;27;20188;-73
2020/12/12 11:23:55;;;;;;;2.53;2.33;;;7.90;99.90;;;;;;5121933;27;20203;-73
2020/12/12 11:26:22;;;;;;;3.50;2.20;;;7.90;99.90;;;;;;5131903;27;20192;-73
2020/12/12 11:28:48;;;;;;;2.50;2.30;;;7.90;99.90;;;;;;5133335;27;20212;-73
2020/12/12 11:31:16;;;;;;;2.83;2.53;;;7.90;99.90;;;;;;5133881;27;20195;-72
2020/12/12 11:33:44;;;;;;;5.18;2.90;;;7.90;99.90;;;;;;5134239;27;20221;-73
2020/12/12 11:36:25;;;;;;;2.80;2.60;;;7.90;99.90;;;;;;5114927;27;20850;-73
2020/12/12 11:38:56;;;;;;;2.60;2.25;;;7.90;99.90;;;;;;5113467;28;20228;-73
2020/12/12 11:41:34;;;;;;;3.75;2.70;;;7.90;99.90;;;;;;5114755;27;20188;-73
2020/12/12 11:46:51;;;;;;;2.70;2.10;;;7.90;99.90;;;;;;5096981;28;20185;-73
2020/12/12 11:49:18;;;;;;;2.90;2.60;;;7.90;99.90;;;;;;5130996;27;20192;-73
2020/12/12 11:51:45;;;;;;;3.65;3.35;;;7.90;99.90;;;;;;5113788;27;20201;-73
2020/12/12 11:54:12;;;;;;;2.60;2.40;;;7.90;99.90;;;;;;5121445;27;20226;-73
2020/12/12 11:56:38;;;;;;;4.10;2.92;;;7.90;99.90;;;;;;5131729;27;20231;-72
2020/12/12 11:59:05;;;;;;;2.60;2.40;;;8.00;99.90;;;;;;5116131;27;20192;-72
2020/12/12 12:01:31;;;;;;;2.65;2.45;;;8.00;99.90;;;;;;5116776;27;20211;-73
2020/12/12 12:03:57;;;;;;;3.15;2.50;;;8.00;99.90;;;;;;5123427;27;20533;-80
2020/12/12 12:06:25;;;;;;;3.10;2.80;;;8.00;99.90;;;;;;5119366;27;20199;-72
2020/12/12 12:09:10;;;;;;;2.95;2.38;;;8.00;99.90;;;;;;5136459;27;20202;-72
2020/12/12 12:11:37;;;;;;;2.65;2.13;;;8.00;99.90;;;;;;5129962;27;20552;-71
2020/12/12 12:14:05;;;;;;;4.03;2.65;;;8.00;99.90;;;;;;5122630;27;20312;-72
2020/12/12 12:16:35;;;;;;;3.75;3.05;;;8.00;99.90;;;;;;5122692;27;20273;-71
2020/12/12 12:19:02;;;;;;;3.63;3.30;;;8.00;99.90;;;;;;5117480;27;20188;-71
2020/12/12 12:21:28;;;;;;;2.25;2.05;;;8.10;99.90;;;;;;5116906;27;20510;-72
2020/12/12 12:23:55;;;;;;;4.50;2.70;;;8.10;99.90;;;;;;5128080;27;20540;-71
2020/12/12 12:26:21;;;;;;;5.50;3.40;;;8.10;99.90;;;;;;5128657;27;20188;-71
2020/12/12 12:28:48;;;;;;;2.35;2.15;;;8.10;99.90;;;;;;5133086;27;20196;-73
2020/12/12 12:31:19;;;;;;;2.88;2.67;;;8.20;99.90;;;;;;5117795;27;20216;-71
2020/12/12 12:33:45;;;;;;;3.00;2.60;;;8.20;99.90;;;;;;5111871;28;20210;-70
2020/12/12 12:36:12;;;;;;;3.72;3.03;;;8.20;99.90;;;;;;5112443;28;20307;-72
2020/12/12 12:38:38;;;;;;;1.92;1.77;;;8.20;99.90;;;;;;5116950;27;20781;-69
2020/12/12 12:41:04;;;;;;;2.78;2.58;;;8.20;99.90;;;;;;5112439;28;20647;-71
2020/12/12 12:43:30;;;;;;;2.85;2.50;;;8.20;99.90;;;;;;5124102;27;20192;-71
2020/12/12 12:45:57;;;;;;;3.00;2.72;;;8.30;99.90;;;;;;5132074;27;20229;-72
2020/12/12 12:48:24;;;;;;;3.40;2.70;;;8.30;99.90;;;;;;5124405;27;20185;-72
2020/12/12 12:50:50;;;;;;;2.53;2.25;;;8.30;99.90;;;;;;5114583;28;20188;-72
2020/12/12 12:53:16;;;;;;;3.38;2.50;;;8.30;99.90;;;;;;5118129;28;20200;-72
2020/12/12 12:55:42;;;;;;;3.33;2.70;;;8.30;99.90;;;;;;5127850;27;20624;-71
2020/12/12 12:58:09;;;;;;;3.90;2.50;;;8.30;99.90;;;;;;5111992;27;20243;-72
2020/12/12 13:00:39;;;;;;;2.85;2.33;;;8.30;99.90;;;;;;5119380;28;20193;-72
2020/12/12 13:03:06;;;;;;;3.30;2.83;;;8.30;99.90;;;;;;5131554;28;20204;-72